Pagrindinis puslapis
METAR-TAF:

METAR-TAF

Oro uostai :

Oslas, Norvegija

platuma: 60-12N, ilguma: 011-05E, Aukštis: 208 m

Dabartinis oras

Ataskaita buvo paskelbta 24 minutes, ne 18:20 UTC
Vėjas 6 kt iš Šiaurės/Šiaurės Rytų
Temperatūra 6°C
Drėgmė 93%
Slėgis 994 hPa
Matomumas 10 km arba daugiau
Mažai debesys ne aukštis 900 ft
Su prošvaistėmis ne aukštis 2000 ft
lietus

METAR: ENGM 221820Z 03006KT 9999 -RA FEW009 BKN020 06/05 Q0994 NOSIG

Laikas: 20:44 (18:44 UTC)

Prognozė

Prognozė galioja nuo 22 metu 18 UTC su 23 metu 18 UTC
Vėjas 5 kt iš Šiaurės/Šiaurės Rytų
Matomumas 10 km arba daugiau
Išsisklaidę debesys ne aukštis 400 ft
Su prošvaistėmis ne aukštis 1500 ft
Laikinai
nuo 22 metu 18 UTC su 23 metu 02 UTC
Matomumas: 2500 m
Apsiniaukę ne aukštis 400 ft
lietus, dulksna, rūkana

TAF: ENGM 2218/2318 02005KT 9999 SCT004 BKN015 TEMPO 2218/2302 2500 -RADZ BR OVC004

Orai ataskaitas ir orų prognozės (METAR, TAF).

turimą stotys yra geltonos ir raudonos taškus žemėlapyje.

Perkelti pele per norėdami pamatyti stoties vardą.

Tada spustelėkite, norėdami matyti oro stebėjimo ir prognozės.

Norėdami pakeisti žemėlapį: spustelėkite ant žalios mygtukų su juodo kryžiaus žemyn,; žalią mygtuką su brūkšneliu, jei norite nutolinti; arba žalių rodyklių gretimoms žemėlapius.


METAR-TAF: